KJSL/JSL METAR and TAF weather

Enter ICAO airport designator
Station Type Date Time Source
KJSL METAR 2018/12/11 19:40 UTC NOAA

KJSL 111940Z AUTO 02008KT 10SM CLR 19/07 A3032 RMK A01


Station Type Date Time Source
KJSL Decoded METAR 2018/12/11 19:40 UTC NOAA

Station name not available
Dec 11, 2018 - 02:40 PM EST / 2018.12.11 1940 UTC
Wind: from the NNE (020 degrees) at 9 MPH (8 KT):0
Visibility: 10 mile(s):0
Sky conditions: clear
Temperature: 66 F (19 C)
Dew Point: 44 F (7 C)
Relative Humidity: 45%
Pressure (altimeter): 30.32 in. Hg (1026 hPa)
ob: KJSL 111940Z AUTO 02008KT 10SM CLR 19/07 A3032 RMK A01
cycle: 19

Station Type Date Time Source
KJSL TAF UTC NOAA

Error!


Example: see airport list